Time;durP1;ratioP1;P1;durP2;ratioP2;P2;SDS_P1;SDS_P2;PMS_P1;PMS_P2;Temp;Humidity;BMP_temperature;BMP_pressure;BME280_temperature;BME280_humidity;BME280_pressure;Samples;Min_cycle;Max_cycle;Signal;HPM_P1;HPM_P2
2023/09/03 00:02:23;;;;;;;31.03;28.73;;;;;;;;;;5083697;28;20527;-82
2023/09/03 00:04:50;;;;;;;30.20;28.10;;;;;;;;;;5083454;28;20466;-82
2023/09/03 00:07:17;;;;;;;30.73;28.23;;;;;;;;;;5084246;28;20460;-82
2023/09/03 00:09:44;;;;;;;28.40;26.30;;;;;;;;;;5102938;28;20455;-83
2023/09/03 00:12:12;;;;;;;29.70;27.47;;;;;;;;;;5103578;28;20551;-83
2023/09/03 00:14:39;;;;;;;28.57;26.67;;;;;;;;;;5104425;28;20448;-84
2023/09/03 00:17:07;;;;;;;28.50;26.50;;;;;;;;;;5104026;28;20418;-82
2023/09/03 00:19:35;;;;;;;27.50;25.60;;;;;;;;;;5104180;28;20453;-82
2023/09/03 00:22:02;;;;;;;27.97;25.97;;;;;;;;;;5103810;28;20444;-82
2023/09/03 00:24:33;;;;;;;27.07;25.17;;;;;;;;;;5103998;28;20521;-82
2023/09/03 00:27:00;;;;;;;28.53;26.60;;;;;;;;;;5104496;28;20428;-82
2023/09/03 00:29:27;;;;;;;27.47;25.67;;;;;;;;;;5103179;28;20464;-82
2023/09/03 00:31:54;;;;;;;28.23;26.33;;;;;;;;;;5103485;28;20412;-83
2023/09/03 00:34:21;;;;;;;26.70;24.93;;;;;;;;;;5104027;28;20928;-83
2023/09/03 00:36:50;;;;;;;26.07;24.27;;;;;;;;;;5104436;28;20456;-82
2023/09/03 00:39:18;;;;;;;26.67;24.90;;;;;;;;;;5103093;28;20459;-83
2023/09/03 00:41:45;;;;;;;27.67;25.77;;;;;;;;;;5103618;28;20456;-83
2023/09/03 00:44:14;;;;;;;27.03;25.10;;;;;;;;;;5103401;28;20469;-81
2023/09/03 00:46:42;;;;;;;26.63;24.63;;;;;;;;;;5104447;28;20430;-83
2023/09/03 00:49:10;;;;;;;26.87;24.97;;;;;;;;;;5103086;28;20460;-83
2023/09/03 00:51:37;;;;;;;26.47;24.80;;;;;;;;;;5102994;28;20909;-82
2023/09/03 00:54:07;;;;;;;25.40;23.30;;;;;;;;;;5103724;28;20523;-83
2023/09/03 00:56:34;;;;;;;25.30;23.43;;;;;;;;;;5103718;28;20451;-83
2023/09/03 00:59:01;;;;;;;26.67;24.70;;;;;;;;;;5101887;28;20469;-83
2023/09/03 01:01:29;;;;;;;24.60;23.00;;;;;;;;;;5102610;28;20459;-83
2023/09/03 01:03:56;;;;;;;26.47;24.77;;;;;;;;;;5103351;28;20465;-83
2023/09/03 01:06:25;;;;;;;26.23;24.53;;;;;;;;;;5102755;28;20558;-82
2023/09/03 01:08:52;;;;;;;26.10;24.33;;;;;;;;;;5103260;28;20480;-83
2023/09/03 01:11:27;;;;;;;25.90;23.90;;;;;;;;;;5103063;28;20447;-82
2023/09/03 01:13:58;;;;;;;26.07;24.17;;;;;;;;;;5103186;28;20472;-83
2023/09/03 01:16:29;;;;;;;25.87;24.07;;;;;;;;;;5102392;28;20449;-82
2023/09/03 01:18:57;;;;;;;25.77;24.07;;;;;;;;;;5102456;28;20432;-83
2023/09/03 01:21:36;;;;;;;26.60;24.40;;;;;;;;;;5101134;28;20419;-82
2023/09/03 01:24:09;;;;;;;25.37;23.77;;;;;;;;;;5103015;28;20522;-83
2023/09/03 01:26:46;;;;;;;25.23;23.53;;;;;;;;;;5102716;28;20513;-82
2023/09/03 01:29:15;;;;;;;24.30;22.47;;;;;;;;;;5102232;28;20481;-82
2023/09/03 01:31:43;;;;;;;25.70;24.10;;;;;;;;;;5101818;28;20445;-83
2023/09/03 01:34:10;;;;;;;25.17;23.37;;;;;;;;;;5101964;28;20439;-82
2023/09/03 01:36:37;;;;;;;25.30;23.53;;;;;;;;;;5101829;28;20456;-82
2023/09/03 01:39:05;;;;;;;25.50;23.90;;;;;;;;;;5102705;28;20452;-82
2023/09/03 01:41:33;;;;;;;24.83;23.13;;;;;;;;;;5101521;28;21011;-83
2023/09/03 01:44:00;;;;;;;25.17;23.40;;;;;;;;;;5101839;28;20446;-83
2023/09/03 01:46:35;;;;;;;24.70;23.00;;;;;;;;;;5102189;28;20427;-83
2023/09/03 01:49:05;;;;;;;24.97;23.37;;;;;;;;;;5101837;28;20472;-83
2023/09/03 01:51:37;;;;;;;25.67;23.90;;;;;;;;;;5101505;28;20408;-82
2023/09/03 01:54:09;;;;;;;24.53;23.03;;;;;;;;;;5102098;28;20816;-82
2023/09/03 01:56:38;;;;;;;24.67;23.07;;;;;;;;;;5102572;28;20559;-83
2023/09/03 01:59:13;;;;;;;25.93;24.03;;;;;;;;;;5101738;28;20440;-82
2023/09/03 02:01:41;;;;;;;26.23;24.43;;;;;;;;;;5101831;28;20431;-83
2023/09/03 02:04:09;;;;;;;26.07;24.07;;;;;;;;;;5101082;28;20438;-83
2023/09/03 02:06:36;;;;;;;25.53;23.87;;;;;;;;;;5101577;28;20441;-82
2023/09/03 02:09:03;;;;;;;24.83;23.17;;;;;;;;;;5102100;28;20537;-83
2023/09/03 02:11:30;;;;;;;26.00;24.13;;;;;;;;;;5101264;28;20452;-82
2023/09/03 02:13:57;;;;;;;25.10;23.40;;;;;;;;;;5100822;28;21055;-82
2023/09/03 02:16:24;;;;;;;25.33;23.40;;;;;;;;;;5100718;28;20448;-82
2023/09/03 02:18:52;;;;;;;25.97;24.17;;;;;;;;;;5101524;28;20448;-82
2023/09/03 02:21:19;;;;;;;24.90;23.10;;;;;;;;;;5100655;28;20864;-83
2023/09/03 02:23:46;;;;;;;26.13;24.47;;;;;;;;;;5102366;28;20472;-84
2023/09/03 02:26:13;;;;;;;26.37;24.67;;;;;;;;;;5102009;28;20472;-82
2023/09/03 02:28:40;;;;;;;25.40;23.63;;;;;;;;;;5101531;28;20468;-83
2023/09/03 02:31:08;;;;;;;25.50;23.70;;;;;;;;;;5101698;28;21065;-83
2023/09/03 02:33:35;;;;;;;25.20;23.50;;;;;;;;;;5101859;28;21067;-82
2023/09/03 02:36:03;;;;;;;25.50;23.90;;;;;;;;;;5098945;28;20456;-82
2023/09/03 02:38:30;;;;;;;25.47;23.70;;;;;;;;;;5097684;28;20444;-82
2023/09/03 02:40:57;;;;;;;26.37;24.57;;;;;;;;;;5096326;28;20435;-82
2023/09/03 02:43:24;;;;;;;25.20;23.60;;;;;;;;;;5097305;28;20472;-82
2023/09/03 02:45:51;;;;;;;24.63;23.03;;;;;;;;;;5101190;28;20900;-82
2023/09/03 02:48:19;;;;;;;24.53;23.03;;;;;;;;;;5101252;28;20493;-82
2023/09/03 02:50:47;;;;;;;24.40;22.60;;;;;;;;;;5100512;28;20426;-82
2023/09/03 02:53:15;;;;;;;26.80;24.90;;;;;;;;;;5101309;28;21273;-82
2023/09/03 02:55:42;;;;;;;25.23;23.73;;;;;;;;;;5101048;28;20456;-82
2023/09/03 02:58:09;;;;;;;25.63;23.67;;;;;;;;;;5101264;28;20424;-83
2023/09/03 03:00:37;;;;;;;24.93;23.20;;;;;;;;;;5099058;28;20480;-82
2023/09/03 03:03:04;;;;;;;24.27;22.67;;;;;;;;;;5101282;28;20469;-83
2023/09/03 03:05:31;;;;;;;24.30;22.60;;;;;;;;;;5100794;28;20449;-82
2023/09/03 03:07:59;;;;;;;24.20;22.60;;;;;;;;;;5101603;28;20453;-82
2023/09/03 03:10:27;;;;;;;24.80;23.17;;;;;;;;;;5100551;28;20445;-82
2023/09/03 03:12:54;;;;;;;25.73;24.07;;;;;;;;;;5100891;28;20959;-82
2023/09/03 03:15:21;;;;;;;23.90;22.40;;;;;;;;;;5102109;28;20911;-83
2023/09/03 03:17:48;;;;;;;24.43;22.83;;;;;;;;;;5103843;28;20444;-82
2023/09/03 03:20:15;;;;;;;26.17;24.47;;;;;;;;;;5104077;28;20423;-83
2023/09/03 03:22:42;;;;;;;25.97;24.20;;;;;;;;;;5103522;28;20874;-83
2023/09/03 03:25:10;;;;;;;26.50;24.53;;;;;;;;;;5103455;28;20815;-82
2023/09/03 03:27:39;;;;;;;25.20;23.50;;;;;;;;;;5103279;28;20460;-82
2023/09/03 03:30:06;;;;;;;26.10;23.87;;;;;;;;;;5102218;28;20472;-83
2023/09/03 03:32:33;;;;;;;25.53;23.80;;;;;;;;;;5103462;28;20480;-82
2023/09/03 03:35:01;;;;;;;25.43;23.83;;;;;;;;;;5103898;28;20459;-83
2023/09/03 03:37:28;;;;;;;24.13;22.63;;;;;;;;;;5104977;28;20523;-82
2023/09/03 03:39:55;;;;;;;24.00;22.50;;;;;;;;;;5103019;28;20457;-83
2023/09/03 03:42:22;;;;;;;25.87;24.27;;;;;;;;;;5103327;28;20440;-82
2023/09/03 03:44:50;;;;;;;23.53;22.13;;;;;;;;;;5102877;28;20416;-83
2023/09/03 03:47:17;;;;;;;25.03;23.53;;;;;;;;;;5103069;28;20448;-82
2023/09/03 03:49:45;;;;;;;25.97;24.10;;;;;;;;;;5102186;28;20478;-84
2023/09/03 03:52:12;;;;;;;25.37;23.53;;;;;;;;;;5102666;28;20468;-82
2023/09/03 03:54:39;;;;;;;25.40;23.60;;;;;;;;;;5103358;28;20423;-83
2023/09/03 03:57:06;;;;;;;26.03;24.33;;;;;;;;;;5102561;28;20452;-82
2023/09/03 03:59:34;;;;;;;25.50;23.90;;;;;;;;;;5102866;28;20416;-83
2023/09/03 04:02:02;;;;;;;24.47;22.97;;;;;;;;;;5103701;28;20427;-83
2023/09/03 04:04:29;;;;;;;25.33;23.40;;;;;;;;;;5101647;28;20877;-82
2023/09/03 04:06:56;;;;;;;24.20;22.70;;;;;;;;;;5103522;28;20457;-82
2023/09/03 04:09:23;;;;;;;26.20;24.40;;;;;;;;;;5105242;28;20458;-83
2023/09/03 04:11:51;;;;;;;26.33;24.47;;;;;;;;;;5101848;28;20412;-82
2023/09/03 04:14:18;;;;;;;26.63;24.73;;;;;;;;;;5102120;28;20435;-83
2023/09/03 04:16:45;;;;;;;26.07;24.47;;;;;;;;;;5102412;28;20457;-82
2023/09/03 04:19:14;;;;;;;26.20;24.40;;;;;;;;;;5100412;28;20482;-82
2023/09/03 04:21:41;;;;;;;25.20;23.50;;;;;;;;;;5100521;28;20434;-82
2023/09/03 04:24:09;;;;;;;25.37;23.80;;;;;;;;;;5102377;28;20480;-83
2023/09/03 04:26:37;;;;;;;25.80;23.93;;;;;;;;;;5101097;28;20454;-82
2023/09/03 04:29:05;;;;;;;24.83;23.30;;;;;;;;;;5102698;28;20849;-82
2023/09/03 04:31:35;;;;;;;24.87;23.23;;;;;;;;;;5100995;28;20468;-83
2023/09/03 04:34:02;;;;;;;25.03;23.40;;;;;;;;;;5101559;28;20980;-82
2023/09/03 04:36:31;;;;;;;26.03;24.17;;;;;;;;;;5101958;28;20416;-82
2023/09/03 04:38:58;;;;;;;25.67;24.07;;;;;;;;;;5101808;28;20503;-83
2023/09/03 04:41:25;;;;;;;24.53;22.93;;;;;;;;;;5100059;28;20420;-82
2023/09/03 04:43:52;;;;;;;28.43;26.20;;;;;;;;;;5098225;28;20464;-83
2023/09/03 04:46:19;;;;;;;28.63;26.50;;;;;;;;;;5099279;28;20783;-82
2023/09/03 04:48:46;;;;;;;30.63;28.17;;;;;;;;;;5099268;28;21003;-82
2023/09/03 04:51:13;;;;;;;30.30;27.80;;;;;;;;;;5099011;28;20514;-82
2023/09/03 04:53:41;;;;;;;29.77;27.50;;;;;;;;;;5098680;28;20447;-82
2023/09/03 04:56:12;;;;;;;28.27;26.27;;;;;;;;;;5097964;28;20412;-82
2023/09/03 04:58:39;;;;;;;28.90;26.63;;;;;;;;;;5099164;28;20477;-82
2023/09/03 05:01:14;;;;;;;30.20;28.00;;;;;;;;;;5098198;28;20431;-83
2023/09/03 05:03:41;;;;;;;28.20;26.20;;;;;;;;;;5099635;28;20446;-83
2023/09/03 05:06:12;;;;;;;28.30;26.20;;;;;;;;;;5100435;28;20434;-83
2023/09/03 05:08:39;;;;;;;29.23;27.03;;;;;;;;;;5099707;28;20555;-82
2023/09/03 05:11:11;;;;;;;28.77;26.60;;;;;;;;;;5098485;28;20420;-82
2023/09/03 05:13:38;;;;;;;29.27;27.13;;;;;;;;;;5099322;28;20489;-82
2023/09/03 05:16:05;;;;;;;27.23;25.43;;;;;;;;;;5099918;28;20863;-83
2023/09/03 05:18:33;;;;;;;27.10;25.10;;;;;;;;;;5102521;28;20414;-82
2023/09/03 05:21:00;;;;;;;26.53;24.63;;;;;;;;;;5102285;28;20452;-82
2023/09/03 05:23:27;;;;;;;27.80;25.80;;;;;;;;;;5103591;28;20447;-82
2023/09/03 05:25:55;;;;;;;28.20;26.30;;;;;;;;;;5102746;28;20420;-83
2023/09/03 05:28:23;;;;;;;27.77;25.77;;;;;;;;;;5103477;28;20436;-82
2023/09/03 05:30:50;;;;;;;30.20;27.83;;;;;;;;;;5101580;28;20466;-83
2023/09/03 05:33:17;;;;;;;29.40;27.00;;;;;;;;;;5101517;28;20431;-82
2023/09/03 05:35:45;;;;;;;30.37;28.03;;;;;;;;;;5101967;28;20423;-82
2023/09/03 05:38:12;;;;;;;30.07;27.87;;;;;;;;;;5100863;28;20980;-82
2023/09/03 05:40:40;;;;;;;29.07;26.87;;;;;;;;;;5101186;28;20820;-83
2023/09/03 05:43:08;;;;;;;30.43;28.03;;;;;;;;;;5101520;28;20809;-83
2023/09/03 05:45:36;;;;;;;29.50;27.37;;;;;;;;;;5101985;28;20453;-82
2023/09/03 05:48:04;;;;;;;27.43;25.53;;;;;;;;;;5103032;28;20451;-83
2023/09/03 05:50:31;;;;;;;30.50;28.23;;;;;;;;;;5101735;28;20485;-83
2023/09/03 05:52:58;;;;;;;30.33;28.03;;;;;;;;;;5102654;28;20476;-83
2023/09/03 05:55:24;;;;;;;29.40;27.10;;;;;;;;;;5102469;28;21227;-83
2023/09/03 05:57:54;;;;;;;28.73;26.30;;;;;;;;;;5102558;28;20443;-82
2023/09/03 06:00:21;;;;;;;29.13;26.93;;;;;;;;;;5101895;28;20794;-83
2023/09/03 06:02:49;;;;;;;29.20;26.90;;;;;;;;;;5102064;28;20489;-82
2023/09/03 06:05:16;;;;;;;33.90;31.10;;;;;;;;;;5101920;28;20960;-83
2023/09/03 06:07:44;;;;;;;32.20;29.67;;;;;;;;;;5101754;28;20459;-82
2023/09/03 06:10:11;;;;;;;30.40;27.63;;;;;;;;;;5101566;28;21015;-82
2023/09/03 06:12:39;;;;;;;31.27;28.80;;;;;;;;;;5102401;28;20461;-83
2023/09/03 06:15:07;;;;;;;31.47;28.97;;;;;;;;;;5103387;28;20852;-82
2023/09/03 06:17:34;;;;;;;31.37;28.83;;;;;;;;;;5101877;28;20460;-83
2023/09/03 06:20:03;;;;;;;30.53;27.93;;;;;;;;;;5101138;28;20436;-82
2023/09/03 06:22:30;;;;;;;30.43;27.83;;;;;;;;;;5101646;28;20461;-83
2023/09/03 06:24:57;;;;;;;29.70;27.30;;;;;;;;;;5101852;28;20456;-82
2023/09/03 06:27:24;;;;;;;31.63;28.63;;;;;;;;;;5100061;28;20442;-84
2023/09/03 06:29:51;;;;;;;34.30;31.00;;;;;;;;;;5100571;28;20447;-83
2023/09/03 06:32:18;;;;;;;32.70;30.13;;;;;;;;;;5100267;28;20461;-82
2023/09/03 06:34:45;;;;;;;32.50;29.40;;;;;;;;;;5100406;28;20433;-83
2023/09/03 06:37:14;;;;;;;31.23;27.83;;;;;;;;;;5100562;28;20416;-82
2023/09/03 06:39:41;;;;;;;31.70;29.07;;;;;;;;;;5099653;28;20458;-84
2023/09/03 06:42:09;;;;;;;32.80;30.13;;;;;;;;;;5101352;28;20449;-82
2023/09/03 06:44:36;;;;;;;35.00;31.90;;;;;;;;;;5101091;28;20527;-83
2023/09/03 06:47:03;;;;;;;32.20;29.20;;;;;;;;;;5100747;28;20428;-82
2023/09/03 06:49:30;;;;;;;32.77;29.90;;;;;;;;;;5100978;28;20855;-83
2023/09/03 06:51:58;;;;;;;34.87;31.63;;;;;;;;;;5100368;28;20449;-83
2023/09/03 06:54:28;;;;;;;33.33;30.33;;;;;;;;;;5102900;28;20460;-83
2023/09/03 06:56:55;;;;;;;31.33;28.90;;;;;;;;;;5099934;28;20492;-82
2023/09/03 06:59:23;;;;;;;32.23;29.53;;;;;;;;;;5100925;28;20461;-82
2023/09/03 07:01:50;;;;;;;32.37;29.37;;;;;;;;;;5100698;28;20457;-83
2023/09/03 07:04:17;;;;;;;33.57;30.40;;;;;;;;;;5088432;28;20419;-83
2023/09/03 07:06:44;;;;;;;32.63;29.97;;;;;;;;;;5100864;28;20429;-83
2023/09/03 07:09:12;;;;;;;29.53;27.10;;;;;;;;;;5100483;28;20451;-84
2023/09/03 07:11:40;;;;;;;30.67;28.30;;;;;;;;;;5098917;28;20555;-82
2023/09/03 07:14:07;;;;;;;27.97;25.93;;;;;;;;;;5100776;28;20457;-82
2023/09/03 07:16:36;;;;;;;28.10;25.90;;;;;;;;;;5099582;28;20456;-83
2023/09/03 07:19:03;;;;;;;26.40;24.43;;;;;;;;;;5090312;28;20458;-82
2023/09/03 07:21:30;;;;;;;26.80;24.40;;;;;;;;;;5079176;28;20446;-84
2023/09/03 07:23:57;;;;;;;26.70;24.70;;;;;;;;;;5078964;28;20481;-82
2023/09/03 07:26:24;;;;;;;25.23;23.37;;;;;;;;;;5077013;28;20974;-80
2023/09/03 07:28:53;;;;;;;24.17;22.30;;;;;;;;;;5078130;28;20445;-82
2023/09/03 07:31:20;;;;;;;24.13;22.50;;;;;;;;;;5075426;28;20510;-84
2023/09/03 07:33:47;;;;;;;24.73;23.00;;;;;;;;;;5077696;28;20476;-82
2023/09/03 07:36:14;;;;;;;23.80;22.10;;;;;;;;;;5078273;28;20458;-84
2023/09/03 07:38:41;;;;;;;22.77;21.27;;;;;;;;;;5078202;28;20445;-82
2023/09/03 07:41:08;;;;;;;21.90;20.50;;;;;;;;;;5075407;28;20468;-82
2023/09/03 07:43:35;;;;;;;20.10;18.90;;;;;;;;;;5075866;28;20804;-82
2023/09/03 07:46:05;;;;;;;20.37;19.17;;;;;;;;;;5076589;28;20803;-82
2023/09/03 07:48:32;;;;;;;21.50;20.20;;;;;;;;;;5078388;28;20424;-81
2023/09/03 07:50:59;;;;;;;19.77;18.67;;;;;;;;;;5070569;28;20489;-78
2023/09/03 07:53:26;;;;;;;18.43;17.50;;;;;;;;;;5073815;28;20447;-81
2023/09/03 07:55:53;;;;;;;18.23;17.27;;;;;;;;;;5076100;28;20419;-81
2023/09/03 07:58:20;;;;;;;19.73;18.20;;;;;;;;;;5077048;28;20458;-81
2023/09/03 08:00:47;;;;;;;18.63;17.50;;;;;;;;;;5075877;28;20524;-81
2023/09/03 08:03:16;;;;;;;19.40;17.97;;;;;;;;;;5079861;28;20451;-82
2023/09/03 08:05:43;;;;;;;18.43;17.23;;;;;;;;;;5081283;28;20424;-82
2023/09/03 08:08:10;;;;;;;19.37;18.10;;;;;;;;;;5080986;28;20438;-81
2023/09/03 08:10:37;;;;;;;18.70;17.80;;;;;;;;;;5081418;28;20463;-83
2023/09/03 08:13:04;;;;;;;18.73;17.80;;;;;;;;;;5081462;28;20523;-83
2023/09/03 08:15:31;;;;;;;20.03;18.93;;;;;;;;;;5078037;28;20412;-78
2023/09/03 08:17:58;;;;;;;19.33;18.20;;;;;;;;;;5073453;28;20431;-77
2023/09/03 08:20:28;;;;;;;19.63;18.53;;;;;;;;;;5073280;28;20446;-78
2023/09/03 08:22:55;;;;;;;19.73;18.67;;;;;;;;;;5073891;28;20444;-77
2023/09/03 08:25:22;;;;;;;18.60;17.60;;;;;;;;;;5073447;28;20427;-78
2023/09/03 08:27:49;;;;;;;18.00;17.00;;;;;;;;;;5074291;28;20895;-79
2023/09/03 08:30:17;;;;;;;18.53;17.47;;;;;;;;;;5073419;28;20811;-76
2023/09/03 08:32:44;;;;;;;17.90;16.90;;;;;;;;;;5082988;28;20526;-78
2023/09/03 08:35:11;;;;;;;18.23;17.10;;;;;;;;;;5094028;28;20904;-77
2023/09/03 08:37:39;;;;;;;17.90;17.00;;;;;;;;;;5093842;28;20423;-77
2023/09/03 08:40:07;;;;;;;18.70;17.50;;;;;;;;;;5093075;28;20896;-77
2023/09/03 08:42:35;;;;;;;18.70;17.70;;;;;;;;;;5093563;28;20476;-77
2023/09/03 08:45:04;;;;;;;18.63;17.63;;;;;;;;;;5093973;28;20440;-77
2023/09/03 08:47:32;;;;;;;19.60;18.60;;;;;;;;;;5093858;28;20470;-77
2023/09/03 08:49:59;;;;;;;19.50;18.50;;;;;;;;;;5092992;28;20548;-76
2023/09/03 08:52:27;;;;;;;18.90;17.70;;;;;;;;;;5093760;28;20443;-77
2023/09/03 08:54:56;;;;;;;18.70;17.60;;;;;;;;;;5093553;28;20416;-77
2023/09/03 08:57:27;;;;;;;18.80;17.90;;;;;;;;;;5093687;28;20460;-77
2023/09/03 08:59:54;;;;;;;18.67;17.67;;;;;;;;;;5092572;28;20449;-77
2023/09/03 09:02:21;;;;;;;19.30;18.30;;;;;;;;;;5093336;28;20785;-77
2023/09/03 09:04:48;;;;;;;19.63;18.53;;;;;;;;;;5093536;28;20453;-77
2023/09/03 09:07:16;;;;;;;18.80;17.70;;;;;;;;;;5096396;28;20420;-76
2023/09/03 09:09:45;;;;;;;19.20;18.20;;;;;;;;;;5094090;28;20423;-78
2023/09/03 09:12:16;;;;;;;20.70;19.40;;;;;;;;;;5094156;28;20465;-77
2023/09/03 09:14:46;;;;;;;21.00;19.60;;;;;;;;;;5093990;28;20483;-76
2023/09/03 09:17:13;;;;;;;19.80;18.73;;;;;;;;;;5093624;28;20411;-77
2023/09/03 09:19:41;;;;;;;19.97;18.80;;;;;;;;;;5092946;28;20455;-77
2023/09/03 09:22:08;;;;;;;20.10;18.83;;;;;;;;;;5091893;28;20548;-77
2023/09/03 09:24:41;;;;;;;19.90;18.60;;;;;;;;;;5092784;28;20479;-78
2023/09/03 09:27:15;;;;;;;20.73;19.63;;;;;;;;;;5095326;28;20992;-79
2023/09/03 09:29:42;;;;;;;20.10;19.10;;;;;;;;;;5095466;28;20442;-77
2023/09/03 09:32:17;;;;;;;20.27;19.17;;;;;;;;;;5095473;28;20440;-76
2023/09/03 09:34:44;;;;;;;20.50;19.40;;;;;;;;;;5092876;28;20491;-77
2023/09/03 09:37:12;;;;;;;20.07;18.97;;;;;;;;;;5092706;28;20453;-77
2023/09/03 09:39:42;;;;;;;21.13;19.93;;;;;;;;;;5092490;28;20911;-77
2023/09/03 09:42:12;;;;;;;20.40;19.20;;;;;;;;;;5094030;28;20403;-79
2023/09/03 09:44:40;;;;;;;22.40;20.87;;;;;;;;;;5093666;28;20779;-78
2023/09/03 09:47:17;;;;;;;21.40;20.30;;;;;;;;;;5093085;28;20427;-78
2023/09/03 09:49:45;;;;;;;21.63;20.43;;;;;;;;;;5092008;28;20467;-79
2023/09/03 09:52:13;;;;;;;21.20;20.10;;;;;;;;;;5092575;28;20953;-77
2023/09/03 09:54:40;;;;;;;21.70;20.60;;;;;;;;;;5093039;28;20440;-78
2023/09/03 09:57:11;;;;;;;22.00;20.77;;;;;;;;;;5092990;28;20505;-78
2023/09/03 09:59:39;;;;;;;22.50;21.20;;;;;;;;;;5097402;28;20423;-81
2023/09/03 10:02:13;;;;;;;21.90;20.80;;;;;;;;;;5096600;28;20427;-80
2023/09/03 10:04:44;;;;;;;23.03;21.67;;;;;;;;;;5094161;28;20439;-80
2023/09/03 10:07:11;;;;;;;22.83;21.50;;;;;;;;;;5093370;28;20440;-76
2023/09/03 10:09:39;;;;;;;22.90;21.70;;;;;;;;;;5091032;28;20407;-77
2023/09/03 10:12:07;;;;;;;22.30;21.07;;;;;;;;;;5091088;28;20459;-77
2023/09/03 10:14:34;;;;;;;23.53;22.07;;;;;;;;;;5090938;28;20476;-76
2023/09/03 10:17:02;;;;;;;22.40;21.10;;;;;;;;;;5091827;28;20776;-77
2023/09/03 10:19:39;;;;;;;22.07;20.70;;;;;;;;;;5091192;28;20448;-76
2023/09/03 10:22:07;;;;;;;21.87;20.67;;;;;;;;;;5090610;28;20445;-77
2023/09/03 10:24:36;;;;;;;21.00;19.90;;;;;;;;;;5094231;28;20919;-87
2023/09/03 10:27:05;;;;;;;20.53;19.47;;;;;;;;;;5110720;28;20461;-77
2023/09/03 10:29:34;;;;;;;20.37;19.27;;;;;;;;;;5112094;28;20965;-77
2023/09/03 10:32:02;;;;;;;20.83;19.70;;;;;;;;;;5111622;28;20487;-76
2023/09/03 10:34:33;;;;;;;21.10;19.90;;;;;;;;;;5120590;28;20418;-87
2023/09/03 10:37:04;;;;;;;21.50;20.30;;;;;;;;;;5119082;28;20953;-87
2023/09/03 10:39:31;;;;;;;21.73;20.43;;;;;;;;;;5119053;28;20894;-87
2023/09/03 10:42:16;;;;;;;22.40;21.10;;;;;;;;;;5115149;28;20462;-77
2023/09/03 10:44:43;;;;;;;23.17;21.80;;;;;;;;;;5111725;28;20453;-76
2023/09/03 10:47:14;;;;;;;23.23;21.83;;;;;;;;;;5111794;28;20448;-77
2023/09/03 10:49:42;;;;;;;21.63;20.43;;;;;;;;;;5111868;28;20434;-76
2023/09/03 10:52:24;;;;;;;22.03;20.70;;;;;;;;;;5111411;28;20488;-78
2023/09/03 10:55:06;;;;;;;22.97;21.67;;;;;;;;;;5109976;28;20426;-76
2023/09/03 10:57:33;;;;;;;22.10;20.90;;;;;;;;;;5110133;28;20418;-77
2023/09/03 11:00:10;;;;;;;22.77;21.47;;;;;;;;;;5109297;28;20467;-77
2023/09/03 11:02:39;;;;;;;22.30;21.10;;;;;;;;;;5111719;28;20463;-82
2023/09/03 11:05:15;;;;;;;21.50;20.30;;;;;;;;;;5111318;28;20468;-77
2023/09/03 11:07:42;;;;;;;22.37;21.07;;;;;;;;;;5111240;28;20611;-78
2023/09/03 11:10:28;;;;;;;22.60;21.10;;;;;;;;;;5110420;28;20454;-78
2023/09/03 11:12:55;;;;;;;21.67;20.40;;;;;;;;;;5110233;28;21129;-78
2023/09/03 11:15:22;;;;;;;21.90;20.80;;;;;;;;;;5109956;28;20425;-78
2023/09/03 11:17:51;;;;;;;22.63;21.23;;;;;;;;;;5111095;28;20426;-77
2023/09/03 11:20:29;;;;;;;22.43;20.93;;;;;;;;;;5110350;28;20511;-77
2023/09/03 11:22:56;;;;;;;21.70;20.50;;;;;;;;;;5111332;28;20475;-77
2023/09/03 11:25:31;;;;;;;22.50;21.20;;;;;;;;;;5110844;28;20440;-76
2023/09/03 11:27:58;;;;;;;24.20;22.57;;;;;;;;;;5111309;28;20452;-76
2023/09/03 11:30:25;;;;;;;22.40;21.20;;;;;;;;;;5111036;28;20451;-77
2023/09/03 11:32:53;;;;;;;23.20;21.83;;;;;;;;;;5111469;28;20438;-77
2023/09/03 11:35:20;;;;;;;22.20;20.90;;;;;;;;;;5111142;28;20451;-76
2023/09/03 11:37:48;;;;;;;23.60;22.20;;;;;;;;;;5112880;28;20453;-75
2023/09/03 11:40:16;;;;;;;23.17;21.77;;;;;;;;;;5114440;28;20418;-76
2023/09/03 11:42:43;;;;;;;22.60;21.27;;;;;;;;;;5114712;28;20460;-76
2023/09/03 11:45:12;;;;;;;22.80;21.37;;;;;;;;;;5114510;28;20939;-75
2023/09/03 11:47:39;;;;;;;23.47;22.07;;;;;;;;;;5114706;28;20845;-75
2023/09/03 11:50:10;;;;;;;22.77;21.47;;;;;;;;;;5115043;28;20514;-76
2023/09/03 11:52:37;;;;;;;23.00;21.40;;;;;;;;;;5115211;28;20531;-76
2023/09/03 11:55:06;;;;;;;21.73;20.53;;;;;;;;;;5116849;28;20479;-78
2023/09/03 11:57:36;;;;;;;22.90;21.60;;;;;;;;;;5115345;28;20451;-78
2023/09/03 12:00:03;;;;;;;22.50;21.00;;;;;;;;;;5114346;28;20481;-77
2023/09/03 12:02:30;;;;;;;21.57;20.27;;;;;;;;;;5114612;28;21026;-77
2023/09/03 12:04:58;;;;;;;21.97;20.67;;;;;;;;;;5114371;27;20476;-77
2023/09/03 12:07:25;;;;;;;21.67;20.30;;;;;;;;;;5114484;28;20452;-78
2023/09/03 12:09:52;;;;;;;22.23;20.90;;;;;;;;;;5114505;28;20921;-77
2023/09/03 12:12:20;;;;;;;23.47;21.80;;;;;;;;;;5114316;28;20462;-77
2023/09/03 12:14:47;;;;;;;22.77;21.57;;;;;;;;;;5114320;28;20451;-78
2023/09/03 12:17:23;;;;;;;22.23;20.83;;;;;;;;;;5114567;28;20429;-78
2023/09/03 12:19:50;;;;;;;23.10;21.70;;;;;;;;;;5114550;28;20462;-77
2023/09/03 12:22:19;;;;;;;23.17;21.67;;;;;;;;;;5114442;28;20510;-79
2023/09/03 12:24:47;;;;;;;22.57;21.27;;;;;;;;;;5114700;28;20447;-77
2023/09/03 12:27:14;;;;;;;23.20;21.70;;;;;;;;;;5114199;27;20924;-78
2023/09/03 12:29:43;;;;;;;23.03;21.63;;;;;;;;;;5114339;28;20415;-78
2023/09/03 12:32:11;;;;;;;22.00;20.80;;;;;;;;;;5114076;28;20466;-78
2023/09/03 12:34:39;;;;;;;23.00;21.50;;;;;;;;;;5113828;28;20479;-77
2023/09/03 12:37:06;;;;;;;22.97;21.57;;;;;;;;;;5113998;28;20429;-77
2023/09/03 12:39:34;;;;;;;22.80;21.50;;;;;;;;;;5113592;27;20770;-77
2023/09/03 12:42:01;;;;;;;22.60;21.20;;;;;;;;;;5113137;28;20436;-77
2023/09/03 12:44:29;;;;;;;22.23;20.80;;;;;;;;;;5113775;28;20440;-78
2023/09/03 12:46:57;;;;;;;22.77;21.40;;;;;;;;;;5113748;28;20963;-78
2023/09/03 12:49:25;;;;;;;22.63;21.43;;;;;;;;;;5113358;27;20845;-78
2023/09/03 12:51:53;;;;;;;22.80;21.50;;;;;;;;;;5113287;28;20925;-78
2023/09/03 12:54:20;;;;;;;23.50;22.20;;;;;;;;;;5113806;28;20447;-78
2023/09/03 12:56:47;;;;;;;23.27;21.70;;;;;;;;;;5113395;28;20448;-79
2023/09/03 12:59:15;;;;;;;22.60;21.40;;;;;;;;;;5113631;27;20444;-78
2023/09/03 13:01:42;;;;;;;22.80;21.50;;;;;;;;;;5113010;27;20459;-81
2023/09/03 13:04:13;;;;;;;22.47;21.17;;;;;;;;;;5101801;28;20445;-89
2023/09/03 13:06:40;;;;;;;23.00;21.70;;;;;;;;;;5097454;28;20778;-88
2023/09/03 13:09:08;;;;;;;22.40;21.20;;;;;;;;;;5097169;28;20429;-88
2023/09/03 13:11:35;;;;;;;23.07;21.67;;;;;;;;;;5096855;28;20491;-89
2023/09/03 13:14:18;;;;;;;22.73;21.43;;;;;;;;;;5096827;28;20443;-89
2023/09/03 13:16:45;;;;;;;22.17;20.97;;;;;;;;;;5096936;28;20396;-88
2023/09/03 13:19:14;;;;;;;22.20;21.00;;;;;;;;;;5097762;28;20452;-77
2023/09/03 13:21:41;;;;;;;21.37;20.17;;;;;;;;;;5092478;28;20419;-77
2023/09/03 13:24:08;;;;;;;22.90;21.40;;;;;;;;;;5081864;28;20478;-78
2023/09/03 13:26:36;;;;;;;22.40;21.10;;;;;;;;;;5073904;28;20450;-77
2023/09/03 13:29:03;;;;;;;21.90;20.70;;;;;;;;;;5112144;27;20464;-78
2023/09/03 13:31:30;;;;;;;22.33;20.80;;;;;;;;;;5112567;28;20470;-77
2023/09/03 13:33:57;;;;;;;22.57;21.27;;;;;;;;;;5112990;28;20472;-77
2023/09/03 13:36:27;;;;;;;22.00;20.80;;;;;;;;;;5120223;28;20515;-79
2023/09/03 13:38:54;;;;;;;22.20;20.90;;;;;;;;;;5113975;28;20444;-78
2023/09/03 13:41:22;;;;;;;21.93;20.67;;;;;;;;;;5112980;28;20943;-78
2023/09/03 13:43:50;;;;;;;22.20;20.90;;;;;;;;;;5112711;27;20447;-78
2023/09/03 13:46:17;;;;;;;21.37;20.17;;;;;;;;;;5114115;28;20512;-84
2023/09/03 13:48:44;;;;;;;22.07;20.67;;;;;;;;;;5119354;28;20460;-84
2023/09/03 13:51:11;;;;;;;21.97;20.63;;;;;;;;;;5120698;28;20444;-82
2023/09/03 13:53:39;;;;;;;22.40;21.03;;;;;;;;;;5117623;28;21273;-78
2023/09/03 13:56:07;;;;;;;21.93;20.70;;;;;;;;;;5116156;28;20509;-80
2023/09/03 13:58:34;;;;;;;22.40;21.10;;;;;;;;;;5115972;28;20444;-79
2023/09/03 14:01:01;;;;;;;22.47;21.13;;;;;;;;;;5114132;28;20467;-79
2023/09/03 14:03:28;;;;;;;22.77;21.30;;;;;;;;;;5114439;28;20464;-79
2023/09/03 14:06:03;;;;;;;22.87;21.47;;;;;;;;;;5114333;28;20898;-79
2023/09/03 14:08:30;;;;;;;22.60;21.40;;;;;;;;;;5114369;28;20407;-79
2023/09/03 14:10:59;;;;;;;23.47;22.17;;;;;;;;;;5115804;28;20456;-79
2023/09/03 14:13:27;;;;;;;23.17;21.87;;;;;;;;;;5113919;28;20458;-80
2023/09/03 14:15:54;;;;;;;24.00;22.60;;;;;;;;;;5113694;28;20451;-79
2023/09/03 14:18:21;;;;;;;24.50;23.00;;;;;;;;;;5114398;28;20454;-79
2023/09/03 14:20:50;;;;;;;22.67;21.37;;;;;;;;;;5113286;28;21191;-79
2023/09/03 14:23:17;;;;;;;23.50;22.17;;;;;;;;;;5113976;28;20431;-79